Station: Scottsdale  

  Atmospheric Gas Attenuation - ITU Rec 676-11   ----------------- dB/100km -----------------
Date Time Temp RH % AH g/m3 Dew Point Wind Direction Speed kph Gust kph Barometer mB Rainfall Since 9am 24GHz 47GHz 76GHz 122GHz 134GHz 241GHz
02/09 13:50 11.7 75 7.85 7.4 17 22 1007.6 0 18.1 25.1 37.6 98.5 90.6 311.0
02/09 13:40 11.7 73 7.64 7 20 33 1007.6 0 17.6 24.7 36.7 96.3 87.9 301.4
02/09 13:30 11.8 72 7.58 6.9 22 37 1007.8 0 17.5 24.6 36.5 95.6 87.0 298.3
02/09 13:20 11.7 70 7.32 6.4 24 37 1007.9 0 17.0 24.2 35.5 93.0 83.7 286.9
02/09 13:10 11.5 70 7.23 6.2 28 41 1008 0 16.8 24.2 35.2 92.3 82.8 283.6
02/09 13:00 11.6 73 7.59 6.9 24 39 1008.1 0 17.5 24.7 36.6 96.0 87.4 299.6
02/09 12:50 11.6 71 7.38 6.5 28 41 1008.2 0 17.1 24.4 35.8 93.8 84.6 290.1
02/09 12:40 12.6 72 7.97 7.7 19 28 1008.3 0 18.3 25.0 37.6 98.8 91.2 313.2
02/09 12:30 11.8 71 7.47 6.7 20 35 1008.5 0 17.3 24.5 36.0 94.5 85.6 293.5
02/09 12:20 11.6 71 7.38 6.5 22 43 1008.6 0 17.1 24.4 35.8 93.8 84.7 290.2
02/09 12:10 12.2 72 7.77 7.3 17 30 1008.8 0 17.9 24.8 37.1 97.2 89.1 305.7
02/09 12:00 11.4 71 7.29 6.3 19 32 1008.9 0 16.9 24.3 35.5 93.1 83.7 286.9
02/09 11:50 11.4 72 7.39 6.5 20 37 1009.1 0 17.1 24.5 35.9 94.2 85.0 291.5
02/09 11:40 11.3 69 7.04 5.8 22 33 1009.3 0 16.4 24.0 34.6 90.7 80.6 276.0
02/09 11:30 11.6 71 7.38 6.5 19 28 1009.2 0 17.1 24.4 35.8 93.9 84.7 290.3
02/09 11:20 11.4 72 7.39 6.5 19 28 1009.3 0 17.1 24.5 35.9 94.2 85.1 291.5
02/09 11:10 11.4 71 7.29 6.3 22 32 1009.4 0 16.9 24.3 35.6 93.2 83.8 287.0
02/09 11:00 12 71 7.57 6.9 17 30 1009.3 0 17.5 24.6 36.4 95.4 86.7 297.5
02/09 10:50 11.6 73 7.59 6.9 19 32 1009.5 0 17.5 24.8 36.7 96.1 87.5 300.0
02/09 10:40 11.1 74 7.46 6.6 15 28 1009.5 0 17.3 24.7 36.4 95.3 86.3 295.9
02/09 10:30 11 72 7.21 6.2 17 26 1009.5 0 16.7 24.3 35.4 92.8 83.2 284.8
02/09 10:20 11.3 74 7.55 6.8 17 24 1009.6 0 17.5 24.8 36.6 96.0 87.3 299.3
02/09 10:10 11.3 75 7.65 7 15 19 1009.7 0 17.7 24.9 37.0 97.1 88.6 303.9
02/09 10:00 10.8 77 7.61 6.9 11 15 1009.7 0 17.6 25.0 37.1 97.3 88.6 304.0
02/09 09:50 10.2 79 7.52 6.7 13 20 1009.9 0 17.4 25.0 37.0 97.1 88.2 302.2
02/09 09:40 10.1 80 7.57 6.8 15 22 1010 0 17.6 25.2 37.3 97.8 88.9 304.9
02/09 09:30 9.9 80 7.47 6.6 13 22 1009.9 0 17.3 25.0 37.0 96.9 87.8 301.0
02/09 09:20 10.1 78 7.38 6.4 11 17 1010.1 0 17.1 24.9 36.5 95.7 86.4 296.1
02/09 09:10 10.3 79 7.57 6.8 11 20 1010 0 17.5 25.1 37.2 97.5 88.7 304.1
02/09 09:00 10 82 7.71 7.1 9 13 1009.9 0 17.9 25.4 37.9 99.4 90.9 311.9
02/09 08:50 9.5 81 7.38 6.4 11 15 1009.7 8.6 17.2 25.0 36.8 96.4 87.1 298.3
02/09 08:40 9.7 82 7.56 6.8 9 13 1009.7 8.6 17.6 25.2 37.4 98.1 89.2 305.9
02/09 08:30 9 81 7.14 5.9 9 11 1009.6 8.6 16.7 24.8 36.0 94.4 84.4 288.9
02/09 08:20 9 85 7.5 6.6 9 11 1009.7 8.6 17.5 25.3 37.5 98.4 89.2 305.9
02/09 08:10 8.7 82 7.09 5.8 7 11 1009.7 8.6 16.6 24.8 36.0 94.3 84.1 287.7
02/09 08:00 8.4 82 6.96 5.5 11 15 1009.5 8.6 16.3 24.6 35.6 93.2 82.7 282.7
02/09 07:50 8.2 84 7.04 5.7 9 11 1009.5 8.6 16.5 24.8 36.0 94.3 83.9 287.2
02/09 07:40 7.8 86 7.02 5.6 9 11 1009.4 8.6 16.5 24.9 36.1 94.6 84.1 287.7
02/09 07:30 7.6 86 6.93 5.4 9 13 1009.1 8.6 16.3 24.8 35.8 93.8 83.1 284.1
02/09 07:20 7.4 85 6.76 5 7 11 1009 8.6 15.9 24.6 35.2 92.2 81.0 276.8
02/09 07:10 7.3 86 6.8 5.1 7 11 1008.9 8.6 16.0 24.6 35.4 92.7 81.6 279.0
02/09 07:00 7 88 6.82 5.2 7 11 1008.8 8.6 16.1 24.8 35.6 93.3 82.2 281.0
02/09 06:50 6.8 88 6.73 5 7 11 1008.6 8.6 15.9 24.7 35.3 92.5 81.2 277.4
02/09 06:40 6.9 87 6.7 4.9 9 13 1008.4 8.6 15.8 24.6 35.2 92.1 80.7 275.6
02/09 06:30 6.9 88 6.78 5.1 9 13 1008.3 8.6 16.0 24.7 35.5 92.9 81.8 279.3
02/09 06:20 6.7 88 6.69 4.9 9 11 1008.3 8.6 15.8 24.6 35.2 92.2 80.7 275.8
02/09 06:10 6.8 88 6.73 5 6 9 1008.3 8.6 15.9 24.6 35.3 92.5 81.2 277.3
02/09 06:00 6.9 87 6.7 4.9 6 7 1008.3 8.6 15.8 24.6 35.1 92.0 80.7 275.5
02/09 05:50 7.1 87 6.79 5.1 7 11 1008.1 8.6 16.0 24.6 35.4 92.8 81.7 279.0
02/09 05:40 7.1 86 6.71 4.9 7 9 1008 8.6 15.8 24.5 35.1 91.9 80.6 275.2
02/09 05:30 7.5 86 6.89 5.3 7 11 1007.9 8.6 16.2 24.7 35.6 93.4 82.6 282.3
02/09 05:20 7.5 84 6.73 5 6 9 1007.8 8.6 15.9 24.4 35.0 91.6 80.4 274.7
02/09 05:10 7.6 84 6.77 5.1 6 11 1007.6 8.6 15.9 24.5 35.1 91.9 80.8 276.2
02/09 05:00 7.6 84 6.77 5.1 6 11 1007.5 8.6 15.9 24.5 35.1 91.9 80.8 276.2
02/09 04:50 8 84 6.95 5.5 7 13 1007.3 8.6 16.3 24.6 35.6 93.4 82.8 283.1
02/09 04:40 8 84 6.95 5.5 9 15 1007.1 8.6 16.3 24.6 35.6 93.3 82.8 283.1
02/09 04:30 8.3 85 7.17 5.9 9 17 1007 8.6 16.8 24.9 36.4 95.4 85.4 292.3
02/09 04:20 8.3 86 7.25 6.1 9 20 1007 8.6 16.9 25.0 36.7 96.2 86.5 296.1
02/09 04:10 8.4 88 7.47 6.5 11 15 1006.8 8.6 17.4 25.4 37.6 98.5 89.3 306.0
02/09 04:00 8.6 90 7.74 7.1 9 17 1006.7 8.6 18.0 25.7 38.6 101.2 92.8 318.1
02/09 03:50 8.8 91 7.92 7.4 9 13 1006.4 8.6 18.4 26.0 39.2 102.9 94.9 325.8
02/09 03:40 8.8 91 7.92 7.4 9 13 1006.4 8.6 18.4 26.0 39.2 102.9 94.9 325.8
02/09 03:30 8.9 92 8.06 7.7 11 17 1006.2 8.6 18.7 26.2 39.7 104.3 96.7 332.1
02/09 03:20 8.9 91 7.97 7.5 13 22 1006.2 8.6 18.5 26.0 39.4 103.3 95.5 327.8
02/09 03:10 8.9 92 8.06 7.7 13 20 1006 8.6 18.7 26.2 39.7 104.3 96.7 332.0
02/09 03:00 9.1 92 8.17 7.9 15 20 1005.9 8.6 18.9 26.3 40.1 105.3 98.0 336.5
02/09 02:50 9.4 93 8.41 8.3 15 24 1006 8.6 19.4 26.6 40.9 107.6 100.9 346.8
02/09 02:40 9.8 94 8.72 8.9 15 22 1006.2 8.6 20.1 27.0 42.0 110.5 104.7 360.1
02/09 02:30 10.1 94 8.89 9.2 15 24 1006.1 8.6 20.4 27.2 42.6 112.0 106.7 367.0
02/09 02:20 10.2 94 8.95 9.3 17 22 1006.1 8.6 20.5 27.3 42.8 112.5 107.4 369.4
02/09 02:10 10.4 94 9.06 9.5 19 26 1006 8.6 20.8 27.4 43.2 113.5 108.6 373.8
02/09 02:00 10.8 94 9.29 9.9 17 30 1006 8.6 21.2 27.7 43.9 115.5 111.3 383.2
02/09 01:50 11.1 94 9.47 10.2 17 20 1006.1 8.6 21.6 27.9 44.5 117.1 113.4 390.6
02/09 01:40 11.2 94 9.53 10.3 20 32 1005.9 8.6 21.7 28.0 44.7 117.6 114.0 392.9
02/09 01:30 11.2 95 9.63 10.4 17 26 1005.9 8.6 21.9 28.1 45.1 118.8 115.5 397.9
02/09 01:20 11.4 95 9.75 10.6 19 26 1005.8 8.6 22.2 28.3 45.5 119.8 116.8 402.7
02/09 01:10 11.5 95 9.81 10.7 19 33 1005.7 8.6 22.3 28.3 45.7 120.4 117.5 405.2
02/09 01:00 11.7 96 10.04 11.1 19 26 1005.6 8.6 22.8 28.7 46.6 122.7 120.5 415.5
02/09 00:50 11.8 96 10.11 11.2 19 28 1005.6 8.6 23.0 28.8 46.8 123.4 121.3 418.4
02/09 00:40 12 96 10.23 11.4 17 24 1005.7 8.6 23.2 28.9 47.3 124.4 122.7 423.4
02/09 00:30 12 96 10.23 11.4 19 30 1005.6 8.6 23.2 28.9 47.2 124.4 122.7 423.3
02/09 00:20 12.1 96 10.3 11.5 19 28 1005.8 8.6 23.3 29.0 47.5 125.1 123.6 426.3
02/09 00:10 12.1 96 10.3 11.5 20 32 1005.7 8.6 23.3 29.0 47.5 125.1 123.6 426.3
02/09 00:00 12.2 96 10.36 11.6 22 35 1005.6 8.6 23.5 29.1 47.7 125.6 124.2 428.7
01/09 23:50 12.2 96 10.36 11.6 24 44 1005.9 8.6 23.5 29.1 47.7 125.6 124.3 428.8
01/09 23:40 12.2 96 10.36 11.6 28 48 1006 8.6 23.5 29.1 47.7 125.7 124.3 428.8
01/09 23:30 12.2 96 10.36 11.6 28 50 1005.8 8.4 23.5 29.1 47.7 125.6 124.3 428.8
01/09 23:20 12.2 96 10.36 11.6 33 48 1005.9 8.4 23.5 29.1 47.7 125.6 124.3 428.8
01/09 23:10 12.1 96 10.3 11.5 32 50 1006.1 8.4 23.3 29.0 47.5 125.1 123.6 426.4
01/09 23:00 12.1 96 10.3 11.5 33 50 1006.1 8 23.3 29.0 47.5 125.1 123.6 426.4
01/09 22:50 12.1 96 10.3 11.5 28 46 1006.4 7.8 23.3 29.0 47.5 125.2 123.6 426.5
01/09 22:40 12.1 96 10.3 11.5 33 52 1006.4 7.6 23.3 29.0 47.5 125.2 123.6 426.5
01/09 22:30 12.1 96 10.3 11.5 30 52 1006.5 7.2 23.3 29.0 47.5 125.2 123.6 426.6
01/09 22:20 12.1 96 10.3 11.5 30 48 1006.8 7.2 23.3 29.0 47.6 125.2 123.7 426.7
01/09 22:10 12.1 96 10.3 11.5 26 43 1006.9 7 23.3 29.0 47.6 125.2 123.7 426.7
01/09 22:00 12.1 96 10.3 11.5 22 43 1007.2 6.6 23.3 29.1 47.6 125.3 123.7 426.8
01/09 21:50 12.1 95 10.19 11.3 22 41 1007.4 6 23.1 28.9 47.1 124.0 122.2 421.4
01/09 21:40 12.2 95 10.25 11.4 26 54 1007.5 5.8 23.2 28.9 47.3 124.6 122.9 423.9
01/09 21:30 12.2 95 10.25 11.4 28 54 1007.4 5.6 23.2 28.9 47.3 124.5 122.8 423.8
01/09 21:20 12.2 95 10.25 11.4 24 43 1007.4 5.2 23.2 28.9 47.3 124.5 122.8 423.8

Last Refresh: 02-Sep-2026 13:25:33

Bureau of Meteorology